Time;durP1;ratioP1;P1;durP2;ratioP2;P2;SDS_P1;SDS_P2;PMS_P1;PMS_P2;Temp;Humidity;BMP_temperature;BMP_pressure;BME280_temperature;BME280_humidity;BME280_pressure;Samples;Min_cycle;Max_cycle;Signal;HPM_P1;HPM_P2
2021/09/01 00:02:07;;;;;;;18.47;17.07;;;22.70;99.90;;;;;;2609944;54;20448;-61
2021/09/01 00:04:36;;;;;;;18.40;17.20;;;22.70;99.90;;;;;;2607965;54;20506;-61
2021/09/01 00:07:09;;;;;;;17.03;16.07;;;22.70;99.90;;;;;;2607883;54;20419;-62
2021/09/01 00:09:39;;;;;;;17.03;16.03;;;22.70;99.90;;;;;;2608713;54;20550;-62
2021/09/01 00:12:10;;;;;;;16.90;15.97;;;22.70;99.90;;;;;;2608393;46;20438;-61
2021/09/01 00:14:39;;;;;;;16.63;15.53;;;22.70;99.90;;;;;;2608101;47;20398;-62
2021/09/01 00:17:08;;;;;;;17.57;16.47;;;22.70;99.90;;;;;;2608994;39;20767;-62
2021/09/01 00:19:39;;;;;;;17.70;16.60;;;22.70;99.90;;;;;;2609310;51;20387;-62
2021/09/01 00:22:11;;;;;;;16.83;15.83;;;22.70;99.90;;;;;;2609367;54;20418;-62
2021/09/01 00:24:41;;;;;;;17.80;16.70;;;22.70;99.90;;;;;;2609664;54;20919;-61
2021/09/01 00:27:11;;;;;;;17.17;16.07;;;22.70;99.90;;;;;;2608433;49;20439;-62
2021/09/01 00:29:42;;;;;;;17.30;16.10;;;22.70;99.90;;;;;;2609172;54;20410;-62
2021/09/01 00:32:12;;;;;;;17.40;16.10;;;22.70;99.90;;;;;;2609660;54;20386;-61
2021/09/01 00:34:44;;;;;;;17.30;16.13;;;22.70;99.90;;;;;;2608028;54;20422;-62
2021/09/01 00:37:19;;;;;;;17.60;16.40;;;22.70;99.90;;;;;;2610356;39;21000;-62
2021/09/01 00:39:49;;;;;;;16.67;15.60;;;22.70;99.90;;;;;;2609902;54;20398;-62
2021/09/01 00:42:19;;;;;;;17.67;16.57;;;22.70;99.90;;;;;;2609800;54;20410;-62
2021/09/01 00:44:49;;;;;;;16.30;15.30;;;22.70;99.90;;;;;;2609456;54;20387;-62
2021/09/01 00:47:20;;;;;;;17.00;15.80;;;22.70;99.90;;;;;;2610813;54;20403;-62
2021/09/01 00:49:49;;;;;;;16.53;15.33;;;22.70;99.90;;;;;;2609625;54;20985;-62
2021/09/01 00:52:22;;;;;;;15.90;15.00;;;22.70;99.90;;;;;;2608304;54;20510;-62
2021/09/01 00:54:53;;;;;;;16.43;15.53;;;22.70;99.90;;;;;;2608781;54;20914;-61
2021/09/01 00:57:25;;;;;;;16.00;15.10;;;22.70;99.90;;;;;;2610733;31;20838;-61
2021/09/01 00:59:56;;;;;;;17.77;16.40;;;22.70;99.90;;;;;;2609977;54;20402;-61
2021/09/01 01:02:26;;;;;;;17.13;16.13;;;22.70;99.90;;;;;;2610432;54;20474;-62
2021/09/01 01:04:57;;;;;;;17.33;16.20;;;22.70;99.90;;;;;;2611021;39;21115;-62
2021/09/01 01:07:28;;;;;;;16.13;15.13;;;22.60;99.90;;;;;;2609902;54;20405;-62
2021/09/01 01:09:59;;;;;;;16.60;15.50;;;22.60;99.90;;;;;;2608787;54;20507;-62
2021/09/01 01:12:29;;;;;;;16.03;15.10;;;22.70;99.90;;;;;;2610390;54;21256;-62
2021/09/01 01:15:00;;;;;;;17.30;16.10;;;22.70;99.90;;;;;;2610845;54;20382;-62
2021/09/01 01:17:29;;;;;;;16.10;15.17;;;22.70;99.90;;;;;;2610180;54;20374;-61
2021/09/01 01:19:59;;;;;;;16.73;15.63;;;22.60;99.90;;;;;;2609955;54;20410;-62
2021/09/01 01:22:31;;;;;;;15.53;14.63;;;22.70;99.90;;;;;;2610263;54;20409;-62
2021/09/01 01:25:08;;;;;;;16.40;15.40;;;22.60;99.90;;;;;;2609921;54;20458;-62
2021/09/01 01:27:43;;;;;;;16.10;15.10;;;22.60;99.90;;;;;;2608556;54;20473;-62
2021/09/01 01:30:18;;;;;;;17.37;15.83;;;22.60;99.90;;;;;;2609667;54;20414;-62
2021/09/01 01:32:49;;;;;;;16.30;15.30;;;22.70;99.90;;;;;;2610047;54;20433;-62
2021/09/01 01:35:27;;;;;;;17.10;16.00;;;22.60;99.90;;;;;;2610018;54;20461;-62
2021/09/01 01:38:00;;;;;;;16.47;15.57;;;22.60;99.90;;;;;;2609195;54;20406;-62
2021/09/01 01:40:33;;;;;;;16.57;15.47;;;22.60;99.90;;;;;;2609418;54;20431;-62
2021/09/01 01:43:06;;;;;;;17.60;16.30;;;22.60;99.90;;;;;;2609093;54;20410;-62
2021/09/01 01:45:39;;;;;;;17.57;16.43;;;22.60;99.90;;;;;;2608496;39;21178;-62
2021/09/01 01:48:10;;;;;;;17.63;16.47;;;22.60;99.90;;;;;;2608673;54;20436;-62
2021/09/01 01:50:40;;;;;;;16.23;15.27;;;22.60;99.90;;;;;;2606509;54;20517;-62
2021/09/01 01:53:10;;;;;;;16.70;15.70;;;22.60;99.90;;;;;;2608689;54;20403;-62
2021/09/01 01:55:39;;;;;;;16.70;15.70;;;22.60;99.90;;;;;;2609415;54;20533;-62
2021/09/01 01:58:11;;;;;;;16.87;15.87;;;22.60;99.90;;;;;;2610162;54;20399;-61
2021/09/01 02:00:40;;;;;;;17.00;16.00;;;22.60;99.90;;;;;;2608759;54;21136;-61
2021/09/01 02:03:11;;;;;;;17.43;16.13;;;22.60;99.90;;;;;;2609116;39;21234;-58
2021/09/01 02:05:40;;;;;;;16.97;15.97;;;22.60;99.90;;;;;;2607926;54;20427;-57
2021/09/01 02:08:10;;;;;;;17.20;16.20;;;22.60;99.90;;;;;;2609674;54;20387;-57
2021/09/01 02:10:40;;;;;;;17.47;16.37;;;22.60;99.90;;;;;;2609156;54;21302;-57
2021/09/01 02:13:14;;;;;;;16.50;15.50;;;22.60;99.90;;;;;;2609517;51;20453;-58
2021/09/01 02:15:46;;;;;;;16.77;15.70;;;22.60;99.90;;;;;;2610300;54;20496;-57
2021/09/01 02:18:16;;;;;;;16.77;15.57;;;22.60;99.90;;;;;;2610121;54;20461;-57
2021/09/01 02:20:46;;;;;;;17.03;15.80;;;22.60;99.90;;;;;;2609786;54;20498;-58
2021/09/01 02:23:16;;;;;;;16.20;15.20;;;22.60;99.90;;;;;;2609265;54;20422;-58
2021/09/01 02:25:46;;;;;;;16.77;15.67;;;22.60;99.90;;;;;;2610439;54;20421;-57
2021/09/01 02:28:18;;;;;;;16.70;15.70;;;22.60;99.90;;;;;;2607915;54;20474;-56
2021/09/01 02:30:47;;;;;;;17.07;16.03;;;22.60;99.90;;;;;;2609689;54;20415;-57
2021/09/01 02:33:17;;;;;;;16.83;15.83;;;22.60;99.90;;;;;;2609719;47;21021;-57
2021/09/01 02:35:48;;;;;;;18.37;17.07;;;22.60;99.90;;;;;;2608936;54;20411;-58
2021/09/01 02:38:19;;;;;;;17.40;16.40;;;22.60;99.90;;;;;;2609415;54;20435;-58
2021/09/01 02:40:50;;;;;;;17.07;16.07;;;22.60;99.90;;;;;;2608403;54;20488;-58
2021/09/01 02:43:21;;;;;;;17.20;16.30;;;22.60;99.90;;;;;;2609634;39;20786;-57
2021/09/01 02:45:51;;;;;;;16.93;15.93;;;22.60;99.90;;;;;;2608687;54;20415;-57
2021/09/01 02:48:21;;;;;;;16.93;15.90;;;22.60;99.90;;;;;;2608842;39;21084;-57
2021/09/01 02:50:52;;;;;;;17.80;16.63;;;22.60;99.90;;;;;;2608262;54;20407;-56
2021/09/01 02:53:26;;;;;;;17.70;16.60;;;22.60;99.90;;;;;;2607985;50;20474;-57
2021/09/01 02:55:57;;;;;;;16.70;15.80;;;22.60;99.90;;;;;;2609132;31;20793;-57
2021/09/01 02:58:30;;;;;;;17.23;16.20;;;22.60;99.90;;;;;;2608440;39;21242;-58
2021/09/01 03:01:00;;;;;;;16.83;15.90;;;22.60;99.90;;;;;;2608432;47;20460;-58
2021/09/01 03:03:29;;;;;;;17.60;16.40;;;22.60;99.90;;;;;;2607911;54;20394;-57
2021/09/01 03:05:58;;;;;;;17.73;16.50;;;22.60;99.90;;;;;;2606833;54;20485;-56
2021/09/01 03:08:27;;;;;;;17.83;16.83;;;22.60;99.90;;;;;;2607851;51;20398;-57
2021/09/01 03:10:56;;;;;;;16.10;15.00;;;22.60;99.90;;;;;;2609269;54;20497;-57
2021/09/01 03:13:25;;;;;;;16.50;15.60;;;22.60;99.90;;;;;;2610435;54;20828;-56
2021/09/01 03:15:57;;;;;;;16.90;16.00;;;22.60;99.90;;;;;;2608803;51;20410;-55
2021/09/01 03:18:27;;;;;;;16.03;15.17;;;22.60;99.90;;;;;;2609522;54;20399;-57
2021/09/01 03:20:57;;;;;;;16.40;15.40;;;22.60;99.90;;;;;;2608724;50;20414;-57
2021/09/01 03:23:27;;;;;;;16.47;15.50;;;22.60;99.90;;;;;;2609448;54;20494;-57
2021/09/01 03:25:57;;;;;;;16.50;15.60;;;22.60;99.90;;;;;;2609519;54;20456;-58
2021/09/01 03:28:26;;;;;;;17.57;16.40;;;22.60;99.90;;;;;;2608827;54;20418;-58
2021/09/01 03:30:58;;;;;;;17.67;16.47;;;22.60;99.90;;;;;;2609251;54;20496;-57
2021/09/01 03:33:29;;;;;;;17.50;16.33;;;22.60;99.90;;;;;;2609268;54;20430;-58
2021/09/01 03:35:59;;;;;;;17.43;16.43;;;22.60;99.90;;;;;;2609387;54;20410;-57
2021/09/01 03:38:29;;;;;;;16.67;15.67;;;22.60;99.90;;;;;;2608988;54;20432;-58
2021/09/01 03:40:59;;;;;;;16.97;15.80;;;22.60;99.90;;;;;;2609251;47;20453;-58
2021/09/01 03:43:29;;;;;;;17.10;16.07;;;22.60;99.90;;;;;;2609527;47;20411;-59
2021/09/01 03:46:00;;;;;;;17.63;16.30;;;22.60;99.90;;;;;;2608939;54;20406;-57
2021/09/01 03:48:30;;;;;;;16.30;15.40;;;22.60;99.90;;;;;;2610168;54;20407;-57
2021/09/01 03:51:00;;;;;;;16.90;15.80;;;22.60;99.90;;;;;;2607377;39;21075;-58
2021/09/01 03:53:30;;;;;;;18.07;16.97;;;22.60;99.90;;;;;;2606589;54;20410;-58
2021/09/01 03:55:59;;;;;;;17.93;16.90;;;22.60;99.90;;;;;;2608146;54;20596;-58
2021/09/01 03:58:28;;;;;;;17.93;16.80;;;22.60;99.90;;;;;;2607419;54;20411;-58
2021/09/01 04:01:01;;;;;;;17.50;16.40;;;22.60;99.90;;;;;;2607862;54;20407;-58
2021/09/01 04:03:31;;;;;;;17.37;16.47;;;22.60;99.90;;;;;;2608008;54;21224;-57
2021/09/01 04:06:02;;;;;;;18.03;17.03;;;22.60;99.90;;;;;;2607630;54;20378;-57
2021/09/01 04:08:34;;;;;;;17.47;16.47;;;22.60;99.90;;;;;;2609648;54;20391;-57
2021/09/01 04:11:05;;;;;;;17.03;15.93;;;22.60;99.90;;;;;;2607490;54;20442;-58
2021/09/01 04:13:36;;;;;;;18.63;17.63;;;22.60;99.90;;;;;;2608710;54;20466;-56
2021/09/01 04:16:10;;;;;;;18.33;17.03;;;22.60;99.90;;;;;;2607494;54;20568;-57
2021/09/01 04:18:40;;;;;;;18.07;17.10;;;22.50;99.90;;;;;;2609240;39;21154;-59
2021/09/01 04:21:10;;;;;;;18.00;17.10;;;22.60;99.90;;;;;;2606649;54;20411;-57
2021/09/01 04:23:41;;;;;;;17.73;16.70;;;22.60;99.90;;;;;;2607388;39;20884;-58
2021/09/01 04:26:11;;;;;;;18.87;17.60;;;22.60;99.90;;;;;;2606413;47;20482;-58
2021/09/01 04:28:41;;;;;;;19.20;18.10;;;22.50;99.90;;;;;;2605163;54;20409;-58
2021/09/01 04:31:14;;;;;;;19.30;17.50;;;22.60;99.90;;;;;;2603160;47;20451;-58
2021/09/01 04:33:44;;;;;;;18.70;17.70;;;22.60;99.90;;;;;;2601291;54;20450;-57
2021/09/01 04:36:14;;;;;;;19.03;17.73;;;22.50;99.90;;;;;;2602511;54;20497;-57
2021/09/01 04:38:44;;;;;;;17.93;16.93;;;22.60;99.90;;;;;;2602020;54;20407;-57
2021/09/01 04:41:14;;;;;;;17.60;16.37;;;22.50;99.90;;;;;;2603314;54;20541;-58
2021/09/01 04:43:44;;;;;;;19.40;17.90;;;22.60;99.90;;;;;;2600996;54;20899;-58
2021/09/01 04:46:16;;;;;;;19.67;18.27;;;22.50;99.90;;;;;;2602093;39;20607;-58
2021/09/01 04:48:49;;;;;;;19.00;17.60;;;22.60;99.90;;;;;;2602234;54;20457;-56
2021/09/01 04:51:21;;;;;;;17.60;16.53;;;22.50;99.90;;;;;;2600627;54;20422;-58
2021/09/01 04:53:51;;;;;;;18.50;17.30;;;22.60;99.90;;;;;;2602093;54;20415;-58
2021/09/01 04:56:20;;;;;;;19.10;17.90;;;22.60;99.90;;;;;;2600903;54;21293;-57
2021/09/01 04:58:50;;;;;;;18.63;17.43;;;22.60;99.90;;;;;;2596214;47;20453;-58
2021/09/01 05:01:28;;;;;;;17.83;16.73;;;22.60;99.90;;;;;;2597416;54;20441;-58
2021/09/01 05:04:00;;;;;;;17.20;16.20;;;22.60;99.90;;;;;;2598892;54;20436;-56
2021/09/01 05:06:30;;;;;;;18.87;17.30;;;22.60;99.90;;;;;;2596596;54;20395;-56
2021/09/01 05:08:59;;;;;;;18.17;16.97;;;22.60;99.90;;;;;;2595126;54;20418;-58
2021/09/01 05:11:30;;;;;;;17.30;16.30;;;22.60;99.90;;;;;;2595881;39;21262;-57
2021/09/01 05:14:02;;;;;;;17.40;16.40;;;22.60;99.90;;;;;;2597244;39;20750;-57
2021/09/01 05:16:35;;;;;;;17.20;16.20;;;22.60;99.90;;;;;;2594800;54;20399;-57
2021/09/01 05:19:05;;;;;;;17.53;16.43;;;22.60;99.90;;;;;;2590489;54;20419;-58
2021/09/01 05:21:38;;;;;;;18.03;16.83;;;22.60;99.90;;;;;;2595847;54;20402;-57
2021/09/01 05:24:08;;;;;;;17.83;16.83;;;22.60;99.90;;;;;;2589301;54;20410;-57
2021/09/01 05:26:37;;;;;;;18.47;16.97;;;22.50;99.90;;;;;;2591608;54;20376;-59
2021/09/01 05:29:07;;;;;;;18.70;17.60;;;22.60;99.90;;;;;;2590996;54;20403;-58
2021/09/01 05:31:44;;;;;;;19.23;17.97;;;22.60;99.90;;;;;;2583454;54;20367;-57
2021/09/01 05:34:14;;;;;;;18.83;17.63;;;22.60;99.90;;;;;;2589796;54;20482;-58
2021/09/01 05:36:49;;;;;;;19.23;18.03;;;22.50;99.90;;;;;;2586074;54;20402;-59
2021/09/01 05:39:19;;;;;;;18.03;16.93;;;22.60;99.90;;;;;;2582944;54;20955;-58
2021/09/01 05:41:49;;;;;;;18.10;17.00;;;22.60;99.90;;;;;;2587245;54;20476;-57
2021/09/01 05:44:19;;;;;;;18.57;17.50;;;22.60;99.90;;;;;;2583911;54;20411;-58
2021/09/01 05:46:54;;;;;;;18.30;17.23;;;22.50;99.90;;;;;;2580972;54;20402;-58
2021/09/01 05:49:25;;;;;;;18.33;16.73;;;22.50;99.90;;;;;;2581809;39;20650;-58
2021/09/01 05:51:54;;;;;;;18.13;16.90;;;22.50;99.90;;;;;;2582543;54;20520;-58
2021/09/01 05:54:26;;;;;;;18.77;17.53;;;22.60;99.90;;;;;;2582634;54;20393;-58
2021/09/01 05:57:07;;;;;;;18.97;17.70;;;22.60;99.90;;;;;;2584331;54;20442;-59
2021/09/01 05:59:45;;;;;;;18.43;17.23;;;22.60;99.90;;;;;;2581554;54;20398;-59
2021/09/01 06:02:22;;;;;;;17.77;16.67;;;22.50;99.90;;;;;;2576032;54;20410;-58
2021/09/01 06:04:52;;;;;;;17.90;16.90;;;22.60;99.90;;;;;;2568561;54;20964;-58
2021/09/01 06:07:21;;;;;;;21.30;19.90;;;22.60;99.90;;;;;;2572316;54;20809;-57
2021/09/01 06:09:52;;;;;;;21.10;19.50;;;22.40;98.20;;;;;;2579207;54;20468;-57
2021/09/01 06:12:23;;;;;;;23.23;21.73;;;21.70;95.30;;;;;;2576240;51;20441;-56
2021/09/01 06:14:53;;;;;;;22.57;21.13;;;21.00;95.60;;;;;;2579330;54;20437;-57
2021/09/01 06:17:26;;;;;;;22.00;20.70;;;20.40;96.30;;;;;;2577142;51;20424;-55
2021/09/01 06:19:56;;;;;;;21.50;19.93;;;20.00;96.80;;;;;;2575538;54;20533;-57
2021/09/01 06:22:26;;;;;;;21.97;20.57;;;19.60;97.20;;;;;;2573960;54;20416;-57
2021/09/01 06:24:55;;;;;;;21.43;20.33;;;19.40;97.70;;;;;;2578084;39;20684;-57
2021/09/01 06:27:26;;;;;;;21.53;20.23;;;19.10;98.10;;;;;;2574235;54;20514;-58
2021/09/01 06:29:55;;;;;;;21.13;19.73;;;19.20;98.50;;;;;;2574786;54;20441;-58
2021/09/01 06:32:31;;;;;;;20.83;19.63;;;19.50;98.90;;;;;;2571372;49;20541;-57
2021/09/01 06:35:00;;;;;;;21.20;19.87;;;19.90;99.20;;;;;;2575443;39;20484;-58
2021/09/01 06:37:30;;;;;;;21.93;20.53;;;20.30;99.30;;;;;;2574129;54;20794;-57
2021/09/01 06:39:59;;;;;;;20.27;18.90;;;20.50;99.50;;;;;;2568058;54;20646;-55
2021/09/01 06:42:29;;;;;;;20.63;19.40;;;20.80;99.60;;;;;;2565125;47;20398;-58
2021/09/01 06:44:58;;;;;;;20.50;19.20;;;20.90;99.70;;;;;;2564088;54;20461;-57
2021/09/01 06:47:40;;;;;;;20.03;18.87;;;21.10;99.90;;;;;;2563641;47;20488;-58
2021/09/01 06:50:11;;;;;;;20.30;19.00;;;21.20;99.90;;;;;;2565881;54;21677;-57
2021/09/01 06:52:42;;;;;;;19.60;18.60;;;21.40;99.90;;;;;;2558467;54;20430;-57
2021/09/01 06:55:17;;;;;;;20.43;19.17;;;21.50;99.90;;;;;;2553425;54;20552;-58
2021/09/01 06:57:48;;;;;;;20.47;19.00;;;21.50;99.90;;;;;;2566746;54;20561;-58
2021/09/01 07:00:21;;;;;;;20.07;18.80;;;21.60;99.90;;;;;;2544904;51;20383;-58
2021/09/01 07:02:53;;;;;;;20.23;18.73;;;21.70;99.90;;;;;;2549658;39;21175;-59
2021/09/01 07:05:23;;;;;;;20.30;18.90;;;21.70;99.90;;;;;;2560544;54;20549;-58
2021/09/01 07:07:53;;;;;;;19.50;18.10;;;21.80;99.90;;;;;;2559742;54;20554;-57
2021/09/01 07:10:22;;;;;;;20.37;19.00;;;21.80;99.90;;;;;;2565062;39;20905;-59
2021/09/01 07:12:51;;;;;;;20.27;18.67;;;21.90;99.90;;;;;;2559269;54;20427;-58
2021/09/01 07:15:21;;;;;;;21.37;19.60;;;21.90;99.90;;;;;;2544642;54;20424;-58
2021/09/01 07:17:54;;;;;;;20.30;18.90;;;21.90;99.90;;;;;;2540492;54;21121;-58
2021/09/01 07:20:23;;;;;;;20.40;19.20;;;22.00;99.90;;;;;;2539294;54;20410;-57
2021/09/01 07:22:54;;;;;;;20.40;19.10;;;22.00;99.90;;;;;;2545348;54;20532;-58
2021/09/01 07:25:23;;;;;;;20.50;19.20;;;22.00;99.90;;;;;;2561717;54;20441;-57
2021/09/01 07:27:52;;;;;;;21.10;19.53;;;22.10;99.90;;;;;;2558636;39;20622;-57
2021/09/01 07:30:23;;;;;;;20.60;19.20;;;22.10;99.90;;;;;;2555905;54;20858;-56
2021/09/01 07:32:57;;;;;;;20.07;18.60;;;22.10;99.90;;;;;;2557923;54;20429;-57
2021/09/01 07:35:28;;;;;;;20.97;19.67;;;22.20;99.90;;;;;;2563697;51;20426;-57
2021/09/01 07:37:57;;;;;;;20.20;18.77;;;22.20;99.90;;;;;;2553982;54;21510;-58
2021/09/01 07:40:28;;;;;;;20.30;19.10;;;22.20;99.90;;;;;;2558306;54;20454;-57
2021/09/01 07:42:57;;;;;;;19.97;18.77;;;22.20;99.90;;;;;;2557748;51;20403;-59
2021/09/01 07:45:26;;;;;;;19.60;18.50;;;22.20;99.90;;;;;;2559428;54;20430;-58
2021/09/01 07:48:00;;;;;;;20.33;18.93;;;22.30;99.90;;;;;;2560019;54;20470;-57
2021/09/01 07:50:31;;;;;;;19.70;18.50;;;22.30;99.90;;;;;;2563405;54;20413;-58
2021/09/01 07:53:05;;;;;;;25.20;18.77;;;22.30;99.90;;;;;;2563886;54;20462;-58
2021/09/01 07:55:37;;;;;;;19.20;18.20;;;22.30;99.90;;;;;;2568454;54;20391;-59
2021/09/01 07:58:07;;;;;;;19.73;18.53;;;22.30;99.90;;;;;;2571393;54;20433;-58
2021/09/01 08:00:38;;;;;;;20.90;19.50;;;22.30;99.90;;;;;;2569416;54;20391;-59
2021/09/01 08:03:10;;;;;;;20.50;19.10;;;22.30;99.90;;;;;;2568599;39;21106;-57
2021/09/01 08:05:40;;;;;;;19.30;18.30;;;22.30;99.90;;;;;;2567802;54;20537;-58
2021/09/01 08:08:09;;;;;;;20.03;18.73;;;22.30;99.90;;;;;;2568873;54;20944;-57
2021/09/01 08:10:38;;;;;;;20.43;19.03;;;22.40;99.90;;;;;;2568698;54;20414;-58
2021/09/01 08:13:08;;;;;;;20.97;19.57;;;22.30;99.90;;;;;;2563665;47;20415;-59
2021/09/01 08:15:38;;;;;;;21.20;19.67;;;22.40;99.90;;;;;;2566559;54;20446;-59
2021/09/01 08:18:13;;;;;;;20.27;19.03;;;22.40;99.90;;;;;;2567651;54;20375;-58
2021/09/01 08:20:43;;;;;;;20.30;19.10;;;22.40;99.90;;;;;;2561915;54;20366;-58
2021/09/01 08:23:14;;;;;;;20.97;19.37;;;22.40;99.90;;;;;;2566901;54;20398;-59
2021/09/01 08:25:43;;;;;;;20.23;19.03;;;22.40;99.90;;;;;;2562340;54;20457;-59
2021/09/01 08:28:13;;;;;;;21.17;19.57;;;22.40;99.90;;;;;;2564216;54;20470;-57
2021/09/01 08:30:43;;;;;;;20.20;18.67;;;22.40;99.90;;;;;;2560475;54;20402;-58
2021/09/01 08:33:17;;;;;;;19.70;18.60;;;22.40;99.90;;;;;;2568113;39;20818;-58
2021/09/01 08:35:46;;;;;;;19.70;18.50;;;22.40;99.90;;;;;;2562491;54;20406;-58
2021/09/01 08:38:19;;;;;;;20.30;19.07;;;22.40;99.90;;;;;;2562829;54;20441;-58
2021/09/01 08:40:50;;;;;;;19.30;18.23;;;22.40;99.90;;;;;;2561661;54;20949;-56
2021/09/01 08:43:20;;;;;;;20.50;19.30;;;22.40;99.90;;;;;;2563673;39;20662;-57
2021/09/01 08:45:52;;;;;;;20.50;19.40;;;22.40;99.90;;;;;;2559228;54;20785;-55
2021/09/01 08:48:27;;;;;;;19.63;18.47;;;22.40;99.90;;;;;;2563760;54;20454;-57
2021/09/01 08:50:57;;;;;;;19.17;18.03;;;22.40;99.90;;;;;;2564729;54;20565;-58
2021/09/01 08:53:28;;;;;;;20.77;19.30;;;22.40;99.90;;;;;;2563752;54;20423;-58
2021/09/01 08:55:58;;;;;;;20.40;18.83;;;22.40;99.90;;;;;;2561588;47;20926;-58
2021/09/01 08:58:29;;;;;;;20.13;18.83;;;22.40;99.90;;;;;;2562726;54;20441;-57
2021/09/01 09:00:58;;;;;;;20.17;18.77;;;22.40;99.90;;;;;;2564901;39;20952;-59
2021/09/01 09:03:28;;;;;;;20.37;19.10;;;22.40;99.90;;;;;;2562485;54;20411;-57
2021/09/01 09:06:05;;;;;;;20.70;19.40;;;22.40;99.90;;;;;;2558257;54;20419;-58
2021/09/01 09:08:35;;;;;;;21.27;19.80;;;22.40;99.90;;;;;;2565306;39;20908;-58
2021/09/01 09:11:04;;;;;;;21.50;20.10;;;22.40;99.90;;;;;;2558650;54;21522;-58
2021/09/01 09:13:36;;;;;;;20.33;19.07;;;22.40;99.90;;;;;;2563535;54;20386;-58
2021/09/01 09:16:09;;;;;;;20.43;19.13;;;22.40;99.90;;;;;;2560562;51;20453;-58
2021/09/01 09:18:40;;;;;;;19.77;18.47;;;22.40;99.90;;;;;;2563245;51;20395;-59
2021/09/01 09:21:19;;;;;;;21.00;19.50;;;22.40;99.90;;;;;;2567296;54;20494;-57
2021/09/01 09:23:56;;;;;;;20.03;18.77;;;22.40;99.90;;;;;;2561040;54;20413;-58
2021/09/01 09:26:27;;;;;;;19.53;18.30;;;22.40;99.90;;;;;;2561369;39;20787;-58
2021/09/01 09:29:13;;;;;;;20.70;19.30;;;22.40;99.90;;;;;;2561439;54;20944;-58
2021/09/01 09:31:46;;;;;;;21.03;19.73;;;22.40;99.90;;;;;;2558526;54;20500;-58
2021/09/01 09:34:22;;;;;;;21.50;20.00;;;22.40;99.90;;;;;;2563004;54;20430;-58
2021/09/01 09:37:09;;;;;;;19.03;17.83;;;22.40;99.90;;;;;;2564969;54;20497;-58
2021/09/01 09:39:45;;;;;;;18.63;17.43;;;22.40;99.90;;;;;;2567504;54;20375;-58
2021/09/01 09:42:16;;;;;;;19.37;18.30;;;22.40;99.90;;;;;;2562532;54;20589;-59
2021/09/01 09:44:45;;;;;;;19.47;18.27;;;22.40;99.90;;;;;;2566404;54;20426;-57
2021/09/01 09:47:15;;;;;;;18.53;17.63;;;22.40;99.90;;;;;;2564606;39;20714;-57
2021/09/01 09:49:45;;;;;;;20.07;18.97;;;22.40;98.50;;;;;;2567069;54;20407;-57
2021/09/01 09:52:20;;;;;;;19.43;18.43;;;22.30;99.10;;;;;;2566045;54;20423;-56
2021/09/01 09:54:57;;;;;;;19.73;18.63;;;22.30;98.00;;;;;;2568194;54;20532;-57
2021/09/01 09:57:27;;;;;;;19.67;18.47;;;22.20;97.20;;;;;;2559414;54;20441;-56
2021/09/01 10:00:00;;;;;;;19.27;18.27;;;22.20;96.70;;;;;;2569768;54;20419;-57
2021/09/01 10:02:30;;;;;;;18.70;17.80;;;22.20;96.60;;;;;;2567552;54;20418;-57
2021/09/01 10:05:00;;;;;;;18.87;17.83;;;22.10;96.90;;;;;;2567316;54;20457;-57
2021/09/01 10:07:33;;;;;;;18.93;17.83;;;22.20;97.30;;;;;;2569414;54;20456;-56
2021/09/01 10:10:02;;;;;;;17.53;16.63;;;22.20;97.00;;;;;;2562835;54;20449;-57
2021/09/01 10:12:31;;;;;;;20.30;19.20;;;22.20;96.70;;;;;;2569887;54;20403;-57
2021/09/01 10:15:05;;;;;;;25.60;23.60;;;22.20;95.70;;;;;;2569752;54;20434;-58
2021/09/01 10:17:38;;;;;;;24.73;22.87;;;22.10;95.70;;;;;;2569662;54;20487;-57
2021/09/01 10:20:13;;;;;;;28.70;26.70;;;22.20;95.60;;;;;;2567224;54;20470;-57
2021/09/01 10:23:01;;;;;;;28.33;25.93;;;22.10;95.20;;;;;;2567713;39;20874;-57
2021/09/01 10:25:38;;;;;;;25.10;23.30;;;22.00;94.90;;;;;;2570514;51;21164;-56
2021/09/01 10:28:38;;;;;;;26.50;24.50;;;22.00;95.20;;;;;;2572541;54;20437;-57
2021/09/01 10:31:26;;;;;;;22.40;20.93;;;22.10;95.60;;;;;;2572891;54;20406;-57
2021/09/01 10:34:01;;;;;;;20.63;19.43;;;22.10;95.60;;;;;;2576097;39;20788;-57
2021/09/01 10:37:01;;;;;;;22.10;20.47;;;22.10;95.00;;;;;;2565420;54;20922;-56
2021/09/01 10:39:50;;;;;;;22.77;21.33;;;22.00;94.90;;;;;;2566992;54;20442;-57
2021/09/01 10:42:39;;;;;;;20.77;19.63;;;22.10;95.10;;;;;;2567949;54;20959;-57
2021/09/01 10:45:22;;;;;;;19.53;18.40;;;22.20;95.10;;;;;;2564217;54;20403;-57
2021/09/01 10:48:18;;;;;;;18.67;17.53;;;22.20;94.80;;;;;;2562640;54;20390;-58
2021/09/01 10:50:51;;;;;;;20.43;19.00;;;22.10;94.40;;;;;;2558344;54;20495;-57
2021/09/01 10:53:25;;;;;;;19.27;18.17;;;22.10;94.70;;;;;;2563350;47;20883;-57
2021/09/01 10:56:03;;;;;;;18.80;17.90;;;22.20;94.80;;;;;;2561017;54;20972;-57
2021/09/01 10:58:49;;;;;;;20.20;19.20;;;22.20;94.40;;;;;;2560920;54;20482;-57
2021/09/01 11:01:21;;;;;;;19.87;18.60;;;22.20;94.70;;;;;;2563995;54;20445;-57
2021/09/01 11:03:53;;;;;;;19.57;18.37;;;22.20;94.80;;;;;;2563136;39;21163;-55
2021/09/01 11:06:26;;;;;;;19.50;18.50;;;22.20;94.90;;;;;;2561018;54;20508;-57
2021/09/01 11:09:05;;;;;;;19.00;18.10;;;22.30;94.90;;;;;;2562294;54;20387;-57
2021/09/01 11:11:59;;;;;;;18.90;17.93;;;22.30;95.10;;;;;;2567914;50;20898;-57
2021/09/01 11:14:42;;;;;;;17.70;16.80;;;22.30;95.20;;;;;;2567189;54;20545;-58
2021/09/01 11:17:13;;;;;;;17.50;16.70;;;22.30;95.10;;;;;;2566788;54;20387;-58
2021/09/01 11:19:45;;;;;;;18.63;17.70;;;22.30;94.70;;;;;;2562770;54;21181;-55
2021/09/01 11:22:16;;;;;;;20.17;18.33;;;22.30;94.90;;;;;;2568241;54;20439;-57
2021/09/01 11:24:48;;;;;;;18.37;17.43;;;22.30;95.00;;;;;;2568604;54;20491;-58
2021/09/01 11:27:23;;;;;;;18.60;17.70;;;22.30;95.00;;;;;;2573742;47;20426;-57
2021/09/01 11:30:01;;;;;;;17.43;16.53;;;22.30;94.90;;;;;;2571576;54;20426;-54
2021/09/01 11:32:32;;;;;;;17.67;16.83;;;22.30;94.80;;;;;;2572451;54;20406;-58
2021/09/01 11:35:03;;;;;;;17.93;17.00;;;22.20;94.40;;;;;;2574856;54;21562;-58
2021/09/01 11:37:34;;;;;;;18.33;17.43;;;22.20;94.40;;;;;;2573315;54;20411;-59
2021/09/01 11:40:05;;;;;;;19.20;18.23;;;22.30;94.70;;;;;;2574564;54;20394;-59
2021/09/01 11:42:37;;;;;;;18.53;17.53;;;22.30;95.00;;;;;;2576209;54;20418;-58
2021/09/01 11:45:08;;;;;;;18.10;17.17;;;22.30;95.20;;;;;;2574030;54;20906;-58
2021/09/01 11:47:50;;;;;;;18.90;17.90;;;22.30;95.40;;;;;;2571471;54;20437;-59
2021/09/01 11:50:22;;;;;;;19.73;18.70;;;22.30;95.60;;;;;;2573161;54;20533;-59
2021/09/01 11:52:56;;;;;;;19.90;18.80;;;22.40;95.80;;;;;;2568363;54;21672;-59
2021/09/01 11:55:27;;;;;;;19.77;18.67;;;22.40;95.90;;;;;;2566449;54;20402;-58
2021/09/01 11:58:16;;;;;;;18.50;17.50;;;22.40;96.00;;;;;;2564219;51;20410;-57
2021/09/01 12:00:46;;;;;;;18.33;17.43;;;22.40;96.10;;;;;;2560634;54;20884;-57
2021/09/01 12:03:16;;;;;;;18.73;17.80;;;22.40;96.20;;;;;;2566270;54;20557;-57
2021/09/01 12:05:49;;;;;;;19.60;18.40;;;22.40;96.30;;;;;;2574974;54;20445;-59
2021/09/01 12:08:19;;;;;;;19.40;18.50;;;22.40;96.30;;;;;;2572710;54;20481;-58
2021/09/01 12:10:53;;;;;;;19.90;18.90;;;22.40;96.40;;;;;;2577851;39;21069;-59
2021/09/01 12:13:41;;;;;;;20.40;19.30;;;22.40;96.50;;;;;;2575107;54;20429;-58
2021/09/01 12:16:11;;;;;;;20.47;19.37;;;22.40;96.60;;;;;;2577792;54;20461;-58
2021/09/01 12:19:01;;;;;;;19.47;18.37;;;22.40;96.60;;;;;;2577147;54;21026;-58
2021/09/01 12:21:46;;;;;;;18.50;17.40;;;22.40;96.70;;;;;;2575639;54;20410;-57
2021/09/01 12:24:19;;;;;;;18.40;17.50;;;22.40;96.70;;;;;;2573388;54;20438;-58
2021/09/01 12:27:07;;;;;;;18.60;17.60;;;22.40;96.80;;;;;;2572601;47;20391;-56
2021/09/01 12:29:43;;;;;;;19.00;17.90;;;22.40;96.80;;;;;;2570967;54;20417;-58
2021/09/01 12:32:20;;;;;;;19.03;18.03;;;22.40;96.90;;;;;;2571989;39;20426;-58
2021/09/01 12:34:55;;;;;;;19.13;18.03;;;22.50;97.00;;;;;;2567116;54;20458;-58
2021/09/01 12:37:27;;;;;;;20.20;19.10;;;22.40;96.90;;;;;;2568930;54;20415;-58
2021/09/01 12:40:00;;;;;;;19.80;18.70;;;22.40;97.00;;;;;;2573873;54;20438;-58
2021/09/01 12:42:37;;;;;;;18.93;17.93;;;22.50;97.10;;;;;;2569364;54;20390;-58
2021/09/01 12:45:25;;;;;;;21.17;19.97;;;22.40;97.10;;;;;;2568981;54;20440;-58
2021/09/01 12:47:55;;;;;;;21.53;20.33;;;22.50;97.20;;;;;;2571355;54;20375;-58
2021/09/01 12:50:32;;;;;;;20.23;19.13;;;22.40;97.20;;;;;;2574057;51;20414;-58
2021/09/01 12:53:02;;;;;;;20.40;19.30;;;22.40;97.20;;;;;;2570850;54;20553;-58
2021/09/01 12:55:33;;;;;;;20.57;19.37;;;22.50;97.30;;;;;;2579597;54;20537;-59